Accueil
METAR-TAF:

METAR-TAF

Aéroports :

Brunswick County Airport

Southport, Caroline du Nord, États-Unis

latitude: 33-55-45N, longitude: 078-04-29W, altitude: 8 m

Observation

Le bulletin a été fait il y a 24 minutes, à 23:55 UTC
Vent calme
Température 16°C
Humidité 82%
Pression 1019 hPa
Visibilité: 16.1 km
Nuages fragmentés à une hauteur de 5000 ft

METAR: KSUT 112355Z AUTO 00000KT 10SM BKN050 16/13 A3008 RMK AO2 T01560131 10195 20152

Heure: 19:19 (00:19 UTC)


TAF: absent

Observations et prévisions météorologiques de plus de 4000 aéroports (messages METAR et TAF).

Les stations disponibles sont représentées par des disques jaunes et rouges sur la carte.

Passer la souris dessus pour voir le nom de la station.

Cliquer dessus pour voir les observations et prévisions météorologiques.

Pour changer de carte: cliquez sur les boutons verts avec une croix noire pour zoomer, sur le bouton vert avec un tiret pour effectuer un zoom arrière, ou sur les flèches vertes pour les cartes adjacentes.


METAR-TAF: